Meteo Giornale » Osservazioni meteo Stati Uniti (USA) » Palacios
ore: 18:53 - Osservazioni Meteo Palacios
Lat. 28° 43' N Lon. 96° 15' W Alt. 5 metri s.l.m.
31 °C
Sereno
Temp. 24 Ore
25 °C
34 °C
Est/Sud-Est
20.3 Km/h
Dew point 24 °C
Umidità 66 %
Visibilità 10 Km
Il sole sorge alle ore 07:02
Il sole tramonta alle ore 19:47
| Data e Ora | Cielo e Fenomeni | T °C | DP °C | Um. % | Pres. hPa | Vis. km | Vento km/h | |
|---|---|---|---|---|---|---|---|---|
| Oggi h: 18:53 | Sereno | 31 | 24 | 66 | 1013 | 10 | E/SE 20.3 | |
| Oggi h: 17:53 | Sereno | 33 | 24 | 59 | 1013 | 10 | S/SE 24 | |
| Oggi h: 16:53 | Nuvoloso | 34 | 24 | 56 | 1013 | 10 | S 18.5 | |
| Oggi h: 16:36 | Nuvoloso | 33 | 23 | 55 | 1013 | 10 | N 5.5 | |
| Oggi h: 16:19 | Temporale nelle vicinanze | 33 | 23 | 55 | 1014 | 10 | N 13 | |
| Oggi h: 16:04 | Temporale | 33 | 25 | 62 | 1014 | 10 | S 16.7 | |
| Oggi h: 15:53 | Sereno | 33 | 25 | 62 | 1014 | 10 | S 18.5 | |
| Oggi h: 14:53 | Nuvoloso | 34 | 25 | 59 | 1015 | 10 | S 20.3 | |
| Oggi h: 13:53 | Nuvoloso | 33 | 25 | 62 | 1015 | 10 | S 18.5 | |
| Oggi h: 13:30 | Poco Nuvoloso | 34 | 23 | 52 | 1015 | 10 | E 11.1 | |
| Oggi h: 13:15 | Temporale nelle vicinanze | 34 | 24 | 56 | 1015 | 10 | E/SE 13 | |
| Oggi h: 12:53 | Molto Nuvoloso | 31 | 23 | 62 | 1016 | 10 | E 20.3 | |
| Oggi h: 11:53 | Sereno | 32 | 24 | 62 | 1016 | 10 | S/SO 20.3 | |
| Oggi h: 10:53 | Sereno | 32 | 24 | 62 | 1016 | 10 | S/SO 14.8 | |
| Oggi h: 09:53 | Poco Nuvoloso | 31 | 24 | 66 | 1016 | 10 | S/SO 9.3 | |
| Oggi h: 08:53 | Sereno | 30 | 24 | 70 | 1015 | 10 | N 0 | |
| Oggi h: 07:53 | Nuvoloso | 27 | 25 | 88 | 1015 | 10 | N 0 | |
| Oggi h: 06:53 | Sereno | 25 | 24 | 94 | 1014 | 10 | N/NE 7.4 | |
| Oggi h: 05:53 | Poco Nuvoloso | 27 | 24 | 83 | 1014 | 10 | N 0 | |
| Oggi h: 05:19 | Molto Nuvoloso | 28 | 25 | 83 | 1014 | 10 | S/SE 7.4 | |
| Oggi h: 05:12 | Molto Nuvoloso | 28 | 25 | 83 | 1014 | 10 | S/SE 9.3 | |
| Oggi h: 04:53 | Poco Nuvoloso | 28 | 25 | 83 | 1014 | 10 | S/SE 7.4 | |
| Oggi h: 03:53 | Sereno | 28 | 25 | 83 | 1014 | 10 | S/SE 9.3 | |
| Oggi h: 02:53 | Sereno | 29 | 26 | 83 | 1014 | 10 | S/SE 13 | |
| Oggi h: 01:53 | Poco Nuvoloso | 29 | 26 | 83 | 1015 | 10 | S/SE 14.8 | |
| Oggi h: 00:53 | Sereno | 29 | 26 | 83 | 1015 | 10 | S/SE 16.7 | |
| Ieri h: 23:53 | Sereno | 29 | 26 | 83 | 1015 | 10 | S/SE 22.2 | |
| Ieri h: 22:53 | Sereno | 29 | 26 | 83 | 1014 | 10 | SE 16.7 | |
| Ieri h: 21:53 | Sereno | 29 | 25 | 79 | 1014 | 10 | SE 18.5 | |
| Ieri h: 20:53 | Sereno | 29 | 25 | 79 | 1013 | 10 | SE 18.5 | |
| Ieri h: 19:53 | Sereno | 30 | 24 | 70 | 1013 | 10 | SE 16.7 | |



